createdAt,value
2023-01-09T00:00:35.672Z,99160.69
2023-01-09T00:03:03.357Z,99158.72
2023-01-09T00:05:31.075Z,99157.06
2023-01-09T00:07:58.879Z,99163.16
2023-01-09T00:10:28.005Z,99150.47
2023-01-09T00:12:55.676Z,99156.72
2023-01-09T00:15:23.395Z,99152.94
2023-01-09T00:17:51.303Z,99160.69
2023-01-09T00:20:19.042Z,99160.69
2023-01-09T00:22:46.692Z,99161.66
2023-01-09T00:25:14.401Z,99166.03
2023-01-09T00:27:43.452Z,99165.28
2023-01-09T00:30:12.610Z,99169.25
2023-01-09T00:32:40.279Z,99157.44
2023-01-09T00:35:09.022Z,99162.06
2023-01-09T00:37:36.755Z,99163.16
2023-01-09T00:40:04.585Z,99162.63
2023-01-09T00:42:33.790Z,99161.28
2023-01-09T00:45:06.588Z,99163.91
2023-01-09T00:47:38.060Z,99163.22
2023-01-09T00:50:08.176Z,99160.59
2023-01-09T00:52:37.743Z,99152.03
2023-01-09T00:55:06.786Z,99153.84
2023-01-09T00:57:34.561Z,99153.00
2023-01-09T01:00:03.858Z,99166.16
2023-01-09T01:02:31.619Z,99166.03
2023-01-09T01:05:16.782Z,99189.56
2023-01-09T01:07:45.003Z,99180.66
2023-01-09T01:10:16.235Z,99174.16
2023-01-09T01:12:44.827Z,99171.50
2023-01-09T01:15:14.501Z,99176.91
2023-01-09T01:17:42.733Z,99171.78
2023-01-09T01:20:12.880Z,99174.75
2023-01-09T01:22:42.412Z,99187.34
2023-01-09T01:25:11.105Z,99185.69
2023-01-09T01:27:39.067Z,99183.22
2023-01-09T01:30:07.933Z,99188.78
2023-01-09T01:32:37.315Z,99185.19
2023-01-09T01:35:05.593Z,99202.63
2023-01-09T01:37:35.465Z,99195.72
2023-01-09T01:40:03.455Z,99198.19
2023-01-09T01:42:31.347Z,99198.84
2023-01-09T01:45:07.420Z,99202.31
2023-01-09T01:47:41.824Z,99191.78
2023-01-09T01:50:14.122Z,99196.22
2023-01-09T01:52:43.832Z,99199.59
2023-01-09T01:55:13.179Z,99208.47
2023-01-09T01:57:43.198Z,99195.47
2023-01-09T02:00:12.503Z,99215.38
2023-01-09T02:02:43.416Z,99216.66
2023-01-09T02:05:11.250Z,99216.66
2023-01-09T02:07:38.884Z,99209.34
2023-01-09T02:10:07.551Z,99220.69
2023-01-09T02:12:35.265Z,99207.53
2023-01-09T02:15:06.052Z,99222.81
2023-01-09T02:17:46.815Z,99223.38
2023-01-09T02:20:39.458Z,99214.81
2023-01-09T02:23:36.385Z,99222.31
2023-01-09T02:26:28.075Z,99218.19
2023-01-09T02:29:32.028Z,99220.81
2023-01-09T02:32:05.474Z,99221.63
2023-01-09T02:34:38.353Z,99230.03
2023-01-09T02:37:10.206Z,99230.47
2023-01-09T02:39:43.984Z,99227.16
2023-01-09T02:42:14.628Z,99232.28
2023-01-09T02:44:43.030Z,99228.44
2023-01-09T02:47:40.182Z,99228.72
2023-01-09T02:50:10.498Z,99227.63
2023-01-09T02:52:47.789Z,99220.34
2023-01-09T02:55:22.562Z,99226.84
2023-01-09T02:57:56.614Z,99228.94
2023-01-09T03:00:32.191Z,99223.13
2023-01-09T03:03:08.419Z,99232.69
2023-01-09T03:05:40.663Z,99230.09
2023-01-09T03:08:11.403Z,99238.66
2023-01-09T03:10:41.806Z,99239.47
2023-01-09T03:13:12.600Z,99237.97
2023-01-09T03:15:41.243Z,99235.91
2023-01-09T03:18:11.539Z,99236.06
2023-01-09T03:20:39.957Z,99244.16
2023-01-09T03:23:08.632Z,99246.13
2023-01-09T03:25:36.368Z,99249.16
2023-01-09T03:28:05.662Z,99245.56
2023-01-09T03:30:35.273Z,99250.94
2023-01-09T03:33:03.058Z,99250.66
2023-01-09T03:35:32.179Z,99253.88
2023-01-09T03:38:00.118Z,99262.72
2023-01-09T03:40:27.814Z,99265.75
2023-01-09T03:42:55.489Z,99279.03
2023-01-09T03:45:23.162Z,99274.03
2023-01-09T03:47:52.940Z,99280.53
2023-01-09T03:50:20.984Z,99275.84
2023-01-09T03:52:50.015Z,99274.19
2023-01-09T03:55:17.929Z,99274.19
2023-01-09T03:57:45.963Z,99275.16
2023-01-09T04:00:14.661Z,99270.03
2023-01-09T04:02:43.237Z,99278.47
2023-01-09T04:05:11.170Z,99280.41
2023-01-09T04:07:38.923Z,99276.38
2023-01-09T04:10:09.554Z,99280.66
2023-01-09T04:12:37.325Z,99272.94
2023-01-09T04:15:05.677Z,99274.03
2023-01-09T04:17:33.349Z,99285.38
2023-01-09T04:20:01.032Z,99271.81
2023-01-09T04:22:28.735Z,99270.97
2023-01-09T04:24:56.437Z,99275.41
2023-01-09T04:27:25.587Z,99273.59
2023-01-09T04:29:53.265Z,99275.97
2023-01-09T04:32:20.979Z,99286.19
2023-01-09T04:34:48.848Z,99288.69
2023-01-09T04:37:16.616Z,99287.84
2023-01-09T04:39:44.422Z,99280.13
2023-01-09T04:42:12.209Z,99283.56
2023-01-09T04:44:41.324Z,99280.94
2023-01-09T04:47:09.114Z,99284.09
2023-01-09T04:49:37.006Z,99287.97
2023-01-09T04:52:04.938Z,99296.13
2023-01-09T04:54:32.533Z,99294.75
2023-01-09T04:57:00.230Z,99298.34
2023-01-09T04:59:27.933Z,99292.38
2023-01-09T05:01:58.397Z,99316.25
2023-01-09T05:04:26.617Z,99307.94
2023-01-09T05:06:54.358Z,99302.72
2023-01-09T05:09:22.803Z,99318.72
2023-01-09T05:11:50.707Z,99313.03
2023-01-09T05:14:18.427Z,99311.25
2023-01-09T05:16:46.205Z,99312.91
2023-01-09T05:19:15.396Z,99320.66
2023-01-09T05:21:43.091Z,99331.16
2023-01-09T05:24:10.812Z,99319.53
2023-01-09T05:26:38.500Z,99321.19
2023-01-09T05:29:06.186Z,99335.38
2023-01-09T05:31:33.850Z,99324.19
2023-01-09T05:34:01.560Z,99332.06
2023-01-09T05:36:30.797Z,99331.69
2023-01-09T05:38:58.801Z,99339.28
2023-01-09T05:41:26.680Z,99325.91
2023-01-09T05:43:54.337Z,99336.13
2023-01-09T05:46:22.023Z,99331.03
2023-01-09T05:48:49.742Z,99338.06
2023-01-09T05:51:17.382Z,99341.66
2023-01-09T05:53:46.406Z,99336.94
2023-01-09T05:56:14.119Z,99339.94
2023-01-09T05:58:41.849Z,99339.13
2023-01-09T06:01:09.815Z,99330.13
2023-01-09T06:03:37.587Z,99326.69
2023-01-09T06:06:05.506Z,99318.94
2023-01-09T06:08:33.196Z,99317.59
2023-01-09T06:11:02.383Z,99315.94
2023-01-09T06:13:30.111Z,99322.56
2023-01-09T06:15:57.874Z,99319.94
2023-01-09T06:18:25.685Z,99322.84
2023-01-09T06:20:53.357Z,99322.84
2023-01-09T06:23:21.013Z,99329.75
2023-01-09T06:25:48.727Z,99328.94
2023-01-09T06:28:17.792Z,99339.13
2023-01-09T06:30:45.528Z,99333.50
2023-01-09T06:33:13.263Z,99328.94
2023-01-09T06:35:40.976Z,99326.31
2023-01-09T06:38:08.667Z,99323.69
2023-01-09T06:40:36.463Z,99329.53
2023-01-09T06:43:04.177Z,99336.16
2023-01-09T06:45:33.390Z,99327.91
2023-01-09T06:48:01.116Z,99330.53
2023-01-09T06:50:28.869Z,99330.38
2023-01-09T06:52:56.660Z,99328.84
2023-01-09T06:55:26.481Z,99335.75
2023-01-09T06:57:54.845Z,99332.16
2023-01-09T07:00:22.945Z,99329.53
2023-01-09T07:02:52.028Z,99328.72
2023-01-09T07:05:19.670Z,99322.38
2023-01-09T07:07:47.344Z,99323.91
2023-01-09T07:10:15.736Z,99329.03
2023-01-09T07:12:43.408Z,99323.47
2023-01-09T07:15:11.873Z,99326.78
2023-01-09T07:17:39.575Z,99319.88
2023-01-09T07:20:10.182Z,99319.63
2023-01-09T07:22:37.833Z,99314.25
2023-01-09T07:25:06.442Z,99326.25
2023-01-09T07:27:34.154Z,99317.41
2023-01-09T07:30:01.898Z,99322.41
2023-01-09T07:32:29.723Z,99321.31
2023-01-09T07:34:57.408Z,99324.63
2023-01-09T07:37:26.543Z,99327.66
2023-01-09T07:39:54.661Z,99328.63
2023-01-09T07:42:22.390Z,99326.00
2023-01-09T07:44:50.083Z,99331.13
2023-01-09T07:47:17.903Z,99334.56
2023-01-09T07:49:45.591Z,99319.66
2023-01-09T07:52:13.247Z,99320.47
2023-01-09T07:54:42.432Z,99330.16
2023-01-09T07:57:10.097Z,99325.72
2023-01-09T07:59:37.779Z,99327.38
2023-01-09T08:02:07.198Z,99330.28
2023-01-09T08:04:34.943Z,99340.50
2023-01-09T08:07:03.496Z,99334.88
2023-01-09T08:09:31.300Z,99330.44
2023-01-09T08:12:00.398Z,99341.91
2023-01-09T08:14:28.082Z,99334.88
2023-01-09T08:16:55.824Z,99339.97
2023-01-09T08:19:23.980Z,99338.88
2023-01-09T08:21:51.778Z,99342.31
2023-01-09T08:24:19.567Z,99345.91
2023-01-09T08:26:47.321Z,99343.16
2023-01-09T08:29:16.343Z,99344.41
2023-01-09T08:31:44.079Z,99342.59
2023-01-09T08:34:11.812Z,99341.91
2023-01-09T08:36:39.450Z,99347.03
2023-01-09T08:39:07.110Z,99342.59
2023-01-09T08:41:52.379Z,99341.50
2023-01-09T08:44:38.901Z,99339.69
2023-01-09T08:47:06.621Z,99344.25
2023-01-09T08:49:34.821Z,99350.19
2023-01-09T08:52:02.855Z,99343.28
2023-01-09T08:54:31.356Z,99344.25
2023-01-09T08:56:59.429Z,99343.28
2023-01-09T08:59:28.594Z,99342.59
2023-01-09T09:01:56.415Z,99346.75
2023-01-09T09:04:24.202Z,99351.16
2023-01-09T09:06:52.004Z,99349.22
2023-01-09T09:09:19.669Z,99347.56
2023-01-09T09:11:47.477Z,99353.66
2023-01-09T09:14:32.905Z,99357.09
2023-01-09T09:17:02.055Z,99342.06
2023-01-09T09:19:29.704Z,99352.56
2023-01-09T09:21:57.442Z,99349.50
2023-01-09T09:24:25.145Z,99347.84
2023-01-09T09:26:52.800Z,99348.81
2023-01-09T09:29:20.479Z,99351.44
2023-01-09T09:31:48.189Z,99355.03
2023-01-09T09:34:17.317Z,99360.56
2023-01-09T09:36:45.138Z,99367.75
2023-01-09T09:39:12.900Z,99366.34
2023-01-09T09:42:19.645Z,99362.78
2023-01-09T09:45:01.078Z,99368.03
2023-01-09T09:47:41.549Z,99371.59
2023-01-09T09:50:23.626Z,99365.50
2023-01-09T09:52:58.468Z,99377.81
2023-01-09T09:55:31.622Z,99369.94
2023-01-09T09:58:02.402Z,99377.81
2023-01-09T10:00:30.318Z,99387.63
2023-01-09T10:03:02.069Z,99378.09
2023-01-09T10:05:35.851Z,99379.75
2023-01-09T10:08:15.359Z,99386.66
2023-01-09T10:10:46.877Z,99382.38
2023-01-09T10:13:37.628Z,99379.59
2023-01-09T10:16:11.868Z,99397.84
2023-01-09T10:18:46.359Z,99394.00
2023-01-09T10:21:18.105Z,99386.56
2023-01-09T10:24:01.096Z,99393.47
2023-01-09T10:26:31.755Z,99398.72
2023-01-09T10:29:20.005Z,99403.69
2023-01-09T10:31:58.690Z,99382.69
2023-01-09T10:34:35.433Z,99381.03
2023-01-09T10:37:10.061Z,99379.38
2023-01-09T10:39:42.367Z,99390.16
2023-01-09T10:42:16.355Z,99389.88
2023-01-09T10:44:48.988Z,99390.16
2023-01-09T10:47:19.393Z,99399.56
2023-01-09T10:49:47.695Z,99400.38
2023-01-09T10:52:18.355Z,99411.72
2023-01-09T10:54:52.590Z,99409.81
2023-01-09T10:57:43.237Z,99403.69
2023-01-09T11:00:21.645Z,99410.50
2023-01-09T11:02:51.229Z,99421.00
2023-01-09T11:05:21.314Z,99419.47
2023-01-09T11:07:52.695Z,99413.13
2023-01-09T11:10:21.792Z,99419.75
2023-01-09T11:12:49.527Z,99423.94
2023-01-09T11:15:30.661Z,99431.38
2023-01-09T11:18:18.269Z,99419.22
2023-01-09T11:20:46.064Z,99441.38
2023-01-09T11:23:30.021Z,99447.31
2023-01-09T11:25:59.214Z,99444.69
2023-01-09T11:28:27.188Z,99455.19
2023-01-09T11:31:00.930Z,99456.88
2023-01-09T11:33:30.308Z,99471.56
2023-01-09T11:36:04.173Z,99470.44
2023-01-09T11:38:45.487Z,99479.59
2023-01-09T11:41:18.403Z,99491.03
2023-01-09T11:43:47.118Z,99488.81
2023-01-09T11:46:37.399Z,99498.88
2023-01-09T11:49:06.960Z,99490.44
2023-01-09T11:51:36.863Z,99510.50
2023-01-09T11:54:22.101Z,99504.53
2023-01-09T11:56:50.075Z,99513.50
2023-01-09T11:59:18.856Z,99517.78
2023-01-09T12:02:02.643Z,99510.03
2023-01-09T12:04:34.287Z,99517.94
2023-01-09T12:07:30.507Z,99521.66
2023-01-09T12:10:06.498Z,99525.81
2023-01-09T12:12:39.503Z,99538.28
2023-01-09T12:15:22.615Z,99538.13
2023-01-09T12:18:26.161Z,99535.41
2023-01-09T12:21:05.385Z,99531.53
2023-01-09T12:23:44.846Z,99540.72
2023-01-09T12:26:19.091Z,99541.16
2023-01-09T12:29:02.450Z,99537.97
2023-01-09T12:31:41.248Z,99545.47
2023-01-09T12:34:22.014Z,99541.88
2023-01-09T12:36:58.953Z,99543.13
2023-01-09T12:39:31.960Z,99541.63
2023-01-09T12:42:13.700Z,99547.88
2023-01-09T12:44:50.552Z,99546.91
2023-01-09T12:47:46.739Z,99554.94
2023-01-09T12:50:32.381Z,99552.47
2023-01-09T12:53:08.037Z,99552.75
2023-01-09T12:55:38.484Z,99555.66
2023-01-09T12:58:13.972Z,99558.00
2023-01-09T13:00:43.024Z,99577.69
2023-01-09T13:03:16.249Z,99572.00
2023-01-09T13:05:45.669Z,99569.78
2023-01-09T13:08:16.001Z,99579.22
2023-01-09T13:10:45.086Z,99578.78
2023-01-09T13:13:16.753Z,99569.94
2023-01-09T13:15:46.556Z,99580.19
2023-01-09T13:18:20.012Z,99586.44
2023-01-09T13:20:49.154Z,99598.19
2023-01-09T13:23:21.133Z,99602.91
2023-01-09T13:25:50.098Z,99600.53
2023-01-09T13:28:22.590Z,99607.75
2023-01-09T13:31:06.939Z,99625.03
2023-01-09T13:33:36.082Z,99622.28
2023-01-09T13:36:04.410Z,99632.69
2023-01-09T13:38:33.961Z,99637.94
2023-01-09T13:41:28.926Z,99640.69
2023-01-09T13:43:59.811Z,99646.94
2023-01-09T13:46:38.533Z,99652.19
2023-01-09T13:49:08.844Z,99651.50
2023-01-09T13:51:59.365Z,99665.78
2023-01-09T13:55:04.415Z,99670.22
2023-01-09T13:57:34.818Z,99669.63
2023-01-09T14:00:40.098Z,99677.66
2023-01-09T14:03:20.783Z,99679.84
2023-01-09T14:06:24.234Z,99674.75
2023-01-09T14:09:09.579Z,99679.59
2023-01-09T14:11:37.228Z,99695.13
2023-01-09T14:14:09.094Z,99683.91
2023-01-09T14:16:36.997Z,99693.44
2023-01-09T14:19:23.797Z,99705.63
2023-01-09T14:21:54.152Z,99701.50
2023-01-09T14:24:25.785Z,99716.16
2023-01-09T14:26:57.116Z,99730.97
2023-01-09T14:29:39.599Z,99738.72
2023-01-09T14:32:40.522Z,99748.44
2023-01-09T14:35:19.153Z,99756.59
2023-01-09T14:37:54.138Z,99769.63
2023-01-09T14:40:23.865Z,99770.97
2023-01-09T14:42:54.484Z,99779.31
2023-01-09T14:45:24.645Z,99781.25
2023-01-09T14:47:54.992Z,99783.44
2023-01-09T14:50:30.766Z,99794.22
2023-01-09T14:53:03.890Z,99794.47
2023-01-09T14:55:37.010Z,99809.00
2023-01-09T14:58:21.937Z,99803.16
2023-01-09T15:00:52.585Z,99814.66
2023-01-09T15:03:20.725Z,99827.25
2023-01-09T15:05:50.282Z,99841.47
2023-01-09T15:08:19.706Z,99845.19
2023-01-09T15:10:49.148Z,99842.56
2023-01-09T15:13:18.908Z,99843.66
2023-01-09T15:15:47.594Z,99847.00
2023-01-09T15:18:21.708Z,99852.25
2023-01-09T15:20:54.779Z,99857.50
2023-01-09T15:23:24.780Z,99867.91
2023-01-09T15:25:53.048Z,99865.41
2023-01-09T15:28:27.774Z,99869.69
2023-01-09T15:30:58.232Z,99875.78
2023-01-09T15:33:26.227Z,99882.72
2023-01-09T15:36:00.206Z,99880.47
2023-01-09T15:38:28.931Z,99893.22
2023-01-09T15:40:59.044Z,99890.28
2023-01-09T15:43:26.966Z,99905.94
2023-01-09T15:45:55.076Z,99907.97
2023-01-09T15:48:25.459Z,99911.44
2023-01-09T15:50:57.915Z,99914.91
2023-01-09T15:53:26.792Z,99930.25
2023-01-09T15:56:13.857Z,99930.25
2023-01-09T15:58:47.002Z,99940.16
2023-01-09T16:01:27.068Z,99947.22
2023-01-09T16:03:55.690Z,99952.22
2023-01-09T16:06:26.461Z,99959.03
2023-01-09T16:08:56.283Z,99965.84
2023-01-09T16:11:25.561Z,99965.38
2023-01-09T16:13:53.855Z,99973.25
2023-01-09T16:16:27.706Z,99975.44
2023-01-09T16:18:56.576Z,99985.84
2023-01-09T16:21:32.329Z,99998.28
2023-01-09T16:24:00.925Z,100004.50
2023-01-09T16:26:30.065Z,100004.50
2023-01-09T16:28:58.173Z,100007.97
2023-01-09T16:31:27.432Z,100007.97
2023-01-09T16:33:58.888Z,100020.13
2023-01-09T16:36:29.236Z,100020.13
2023-01-09T16:38:57.782Z,100030.66
2023-01-09T16:41:43.005Z,100037.47
2023-01-09T16:44:11.993Z,100042.25
2023-01-09T16:46:41.638Z,100046.66
2023-01-09T16:49:17.771Z,100045.59
2023-01-09T16:51:46.970Z,100046.66
2023-01-09T16:54:14.943Z,100055.38
2023-01-09T16:56:44.463Z,100055.50
2023-01-09T16:59:14.119Z,100066.03
2023-01-09T17:01:43.320Z,100066.28
2023-01-09T17:04:12.468Z,100075.97
2023-01-09T17:06:40.818Z,100080.50
2023-01-09T17:10:46.259Z,100080.75
2023-01-09T17:13:13.875Z,100084.47
2023-01-09T17:15:41.541Z,100087.09
2023-01-09T17:18:14.242Z,100089.94
2023-01-09T17:20:43.476Z,100097.59
2023-01-09T17:23:11.216Z,100105.13
2023-01-09T17:25:56.572Z,100108.72
2023-01-09T17:28:35.723Z,100113.38
2023-01-09T17:31:05.997Z,100118.63
2023-01-09T17:33:34.300Z,100123.88
2023-01-09T17:36:03.090Z,100125.66
2023-01-09T17:38:30.759Z,100129.38
2023-01-09T17:40:58.436Z,100125.78
2023-01-09T17:43:27.536Z,100126.88
2023-01-09T17:45:55.317Z,100138.41
2023-01-09T17:48:23.718Z,100140.31
2023-01-09T17:50:51.424Z,100147.72
2023-01-09T17:53:20.699Z,100165.19
2023-01-09T17:55:48.429Z,100160.97
2023-01-09T17:58:25.920Z,100157.97
2023-01-09T18:00:55.053Z,100156.31
2023-01-09T18:03:23.123Z,100164.91
2023-01-09T18:05:51.103Z,100175.78
2023-01-09T18:08:18.893Z,100174.31
2023-01-09T18:10:48.424Z,100181.63
2023-01-09T18:13:16.529Z,100183.63
2023-01-09T18:15:44.602Z,100196.03
2023-01-09T18:18:13.973Z,100192.59
2023-01-09T18:20:41.930Z,100198.66
2023-01-09T18:23:10.850Z,100209.06
2023-01-09T18:25:40.458Z,100214.31
2023-01-09T18:28:08.117Z,100219.56
2023-01-09T18:30:35.971Z,100219.81
2023-01-09T18:33:04.207Z,100226.97
2023-01-09T18:35:35.158Z,100239.28
2023-01-09T18:38:02.897Z,100240.09
2023-01-09T18:40:30.722Z,100240.81
2023-01-09T18:42:58.414Z,100251.31
2023-01-09T18:45:26.252Z,100259.91
2023-01-09T18:47:53.958Z,100263.25
2023-01-09T18:50:21.645Z,100271.13
2023-01-09T18:52:50.732Z,100259.09
2023-01-09T18:55:18.436Z,100275.28
2023-01-09T18:57:46.128Z,100283.09
2023-01-09T19:00:14.724Z,100287.47
2023-01-09T19:02:42.443Z,100284.75
2023-01-09T19:05:10.884Z,100287.38
2023-01-09T19:07:38.624Z,100292.63
2023-01-09T19:10:09.094Z,100294.50
2023-01-09T19:12:36.818Z,100304.09
2023-01-09T19:15:07.464Z,100311.03
2023-01-09T19:17:35.127Z,100308.88
2023-01-09T19:20:02.876Z,100310.53
2023-01-09T19:22:30.525Z,100308.66
2023-01-09T19:24:58.256Z,100317.38
2023-01-09T19:27:29.437Z,100311.06
2023-01-09T19:29:57.184Z,100309.91
2023-01-09T19:32:24.862Z,100315.34
2023-01-09T19:34:52.531Z,100320.59
2023-01-09T19:37:20.307Z,100312.84
2023-01-09T19:39:48.027Z,100325.38
2023-01-09T19:42:16.325Z,100330.63
2023-01-09T19:44:46.161Z,100338.53
2023-01-09T19:47:14.139Z,100346.50
2023-01-09T19:49:41.825Z,100343.84
2023-01-09T19:52:09.507Z,100352.56
2023-01-09T19:54:37.406Z,100359.53
2023-01-09T19:57:05.112Z,100361.22
2023-01-09T19:59:35.109Z,100357.63
2023-01-09T20:02:05.035Z,100373.38
2023-01-09T20:04:32.859Z,100376.13
2023-01-09T20:07:00.521Z,100385.81
2023-01-09T20:09:28.905Z,100388.63
2023-01-09T20:11:56.580Z,100400.81
2023-01-09T20:14:24.416Z,100400.81
2023-01-09T20:16:54.078Z,100408.69
2023-01-09T20:19:23.518Z,100420.16
2023-01-09T20:21:51.150Z,100421.09
2023-01-09T20:24:18.857Z,100430.16
2023-01-09T20:26:47.251Z,100431.84
2023-01-09T20:29:15.039Z,100448.44
2023-01-09T20:31:42.711Z,100453.69
2023-01-09T20:34:11.258Z,100448.44
2023-01-09T20:36:40.386Z,100454.72
2023-01-09T20:39:10.569Z,100458.31
2023-01-09T20:41:38.494Z,100473.47
2023-01-09T20:44:07.772Z,100483.97
2023-01-09T20:46:37.036Z,100486.06
2023-01-09T20:49:06.577Z,100499.53
2023-01-09T20:51:34.619Z,100506.03
2023-01-09T20:54:03.950Z,100508.78
2023-01-09T20:56:32.698Z,100508.78
2023-01-09T20:59:01.200Z,100514.97
2023-01-09T21:01:29.350Z,100509.81
2023-01-09T21:03:57.540Z,100527.25
2023-01-09T21:06:26.273Z,100531.47
2023-01-09T21:08:54.040Z,100535.66
2023-01-09T21:11:23.634Z,100543.63
2023-01-09T21:13:51.778Z,100551.50
2023-01-09T21:16:21.743Z,100551.41
2023-01-09T21:18:50.015Z,100553.91
2023-01-09T21:21:19.372Z,100556.34
2023-01-09T21:23:47.510Z,100558.97
2023-01-09T21:26:16.078Z,100580.72
2023-01-09T21:28:48.862Z,100580.00
2023-01-09T21:31:19.199Z,100567.06
2023-01-09T21:33:47.455Z,100576.59
2023-01-09T21:36:15.894Z,100578.31
2023-01-09T21:38:43.841Z,100589.66
2023-01-09T21:41:28.175Z,100597.63
2023-01-09T21:44:14.658Z,100601.00
2023-01-09T21:46:55.952Z,100614.84
2023-01-09T21:49:25.409Z,100604.34
2023-01-09T21:51:53.762Z,100615.47
2023-01-09T21:54:21.581Z,100620.66
2023-01-09T21:56:49.239Z,100615.41
2023-01-09T21:59:18.357Z,100623.34
2023-01-09T22:01:46.265Z,100628.31
2023-01-09T22:04:15.285Z,100621.16
2023-01-09T22:06:43.077Z,100635.78
2023-01-09T22:09:11.136Z,100634.84
2023-01-09T22:11:39.146Z,100650.38
2023-01-09T22:14:06.964Z,100642.50
2023-01-09T22:16:36.068Z,100636.72
2023-01-09T22:19:03.810Z,100655.56
2023-01-09T22:21:31.450Z,100645.78
2023-01-09T22:24:01.442Z,100659.09
2023-01-09T22:26:30.459Z,100652.16
2023-01-09T22:28:58.261Z,100661.09
2023-01-09T22:31:28.551Z,100670.88
2023-01-09T22:33:59.338Z,100677.16
2023-01-09T22:36:28.440Z,100682.53
2023-01-09T22:38:57.177Z,100690.50
2023-01-09T22:41:26.034Z,100690.41
2023-01-09T22:43:54.060Z,100690.50
2023-01-09T22:46:22.034Z,100698.28
2023-01-09T22:48:49.708Z,100704.47
2023-01-09T22:51:20.570Z,100706.28
2023-01-09T22:53:48.557Z,100710.69
2023-01-09T22:56:18.052Z,100718.97
2023-01-09T22:58:46.070Z,100727.56
2023-01-09T23:01:14.054Z,100730.19
2023-01-09T23:03:41.974Z,100736.28
2023-01-09T23:06:12.355Z,100738.09
2023-01-09T23:08:41.723Z,100738.84
2023-01-09T23:11:11.661Z,100735.44
2023-01-09T23:13:42.799Z,100738.28
2023-01-09T23:16:10.931Z,100755.00
2023-01-09T23:18:38.771Z,100749.94
2023-01-09T23:21:06.411Z,100758.75
2023-01-09T23:23:36.916Z,100765.91
2023-01-09T23:26:06.045Z,100778.28
2023-01-09T23:28:33.852Z,100779.41
2023-01-09T23:31:01.611Z,100785.63
2023-01-09T23:33:29.320Z,100797.78
2023-01-09T23:35:57.053Z,100801.56
2023-01-09T23:38:24.952Z,100821.91
2023-01-09T23:40:57.193Z,100824.66
2023-01-09T23:43:25.297Z,100820.44
2023-01-09T23:45:53.319Z,100831.56
2023-01-09T23:48:21.292Z,100835.16
2023-01-09T23:50:50.333Z,100839.56
2023-01-09T23:53:18.704Z,100842.91
2023-01-09T23:55:46.405Z,100844.59
2023-01-09T23:58:14.190Z,100848.16
